Time;durP1;ratioP1;P1;durP2;ratioP2;P2;SDS_P1;SDS_P2;PMS_P1;PMS_P2;Temp;Humidity;BMP_temperature;BMP_pressure;BME280_temperature;BME280_humidity;BME280_pressure;Samples;Min_cycle;Max_cycle;Signal;HPM_P1;HPM_P2
2023/11/25 00:00:24;;;;;;;6.97;3.20;;;1.80;99.90;;;;;;4869453;29;20205;-73
2023/11/25 00:02:50;;;;;;;5.47;3.10;;;1.80;99.90;;;;;;4822204;29;20442;-73
2023/11/25 00:05:16;;;;;;;5.37;3.10;;;1.80;99.90;;;;;;4844476;29;20449;-73
2023/11/25 00:07:43;;;;;;;5.37;3.00;;;1.80;99.90;;;;;;4849784;29;20288;-73
2023/11/25 00:10:09;;;;;;;3.97;3.20;;;1.80;99.90;;;;;;4848212;29;20458;-71
2023/11/25 00:12:35;;;;;;;6.00;2.90;;;1.90;99.90;;;;;;4844279;29;20224;-72
2023/11/25 00:15:02;;;;;;;6.40;3.20;;;1.90;99.90;;;;;;4834283;29;20455;-72
2023/11/25 00:17:29;;;;;;;5.20;3.30;;;1.80;99.90;;;;;;4844643;29;20459;-73
2023/11/25 00:19:56;;;;;;;5.10;2.67;;;1.80;99.90;;;;;;4838795;29;20496;-73
2023/11/25 00:22:22;;;;;;;5.90;2.93;;;1.70;99.90;;;;;;4842202;29;20426;-73
2023/11/25 00:24:48;;;;;;;4.63;2.73;;;1.70;99.90;;;;;;4855547;29;20474;-73
2023/11/25 00:27:14;;;;;;;6.73;2.40;;;1.70;99.90;;;;;;4842863;29;20269;-72
2023/11/25 00:29:40;;;;;;;5.23;2.53;;;1.70;99.90;;;;;;4845112;29;20452;-73
2023/11/25 00:32:07;;;;;;;3.53;2.50;;;1.60;99.90;;;;;;4867729;29;20519;-72
2023/11/25 00:34:33;;;;;;;5.40;2.67;;;1.60;99.90;;;;;;4850039;29;20427;-73
2023/11/25 00:36:59;;;;;;;5.90;2.80;;;1.60;99.90;;;;;;4858414;29;20462;-73
2023/11/25 00:39:27;;;;;;;7.37;2.67;;;1.60;99.90;;;;;;4846479;29;20430;-72
2023/11/25 00:41:53;;;;;;;4.30;2.30;;;1.60;99.90;;;;;;4862334;29;20717;-72
2023/11/25 00:44:19;;;;;;;5.17;2.30;;;1.60;99.90;;;;;;4862541;29;20485;-73
2023/11/25 00:46:45;;;;;;;2.77;1.83;;;1.60;99.90;;;;;;4847029;29;20496;-73
2023/11/25 00:49:12;;;;;;;5.23;2.27;;;1.50;99.90;;;;;;4854136;29;20530;-71
2023/11/25 00:51:37;;;;;;;7.47;2.33;;;1.50;99.90;;;;;;4846139;29;20197;-72
2023/11/25 00:54:04;;;;;;;2.90;1.87;;;1.50;99.90;;;;;;4862911;29;20425;-73
2023/11/25 00:56:30;;;;;;;6.93;2.20;;;1.50;99.90;;;;;;4852652;29;20240;-73
2023/11/25 00:58:57;;;;;;;5.30;2.20;;;1.50;99.90;;;;;;4838510;29;20423;-74
2023/11/25 01:01:23;;;;;;;3.70;1.57;;;1.60;99.90;;;;;;4837447;29;20466;-72
2023/11/25 01:03:49;;;;;;;3.80;1.53;;;1.50;99.90;;;;;;4847007;29;20427;-72
2023/11/25 01:06:14;;;;;;;2.93;1.67;;;1.50;99.90;;;;;;4856159;29;20228;-74
2023/11/25 01:08:40;;;;;;;4.00;1.87;;;1.60;99.90;;;;;;4845839;29;20196;-72
2023/11/25 01:11:06;;;;;;;3.50;1.53;;;1.50;99.90;;;;;;4839727;29;20198;-72
2023/11/25 01:13:31;;;;;;;3.63;1.27;;;1.50;99.90;;;;;;4843367;29;20214;-72
2023/11/25 01:16:00;;;;;;;3.20;1.37;;;1.50;99.90;;;;;;4845148;29;20597;-72
2023/11/25 01:18:26;;;;;;;3.00;1.50;;;1.50;99.90;;;;;;4859482;29;20462;-75
2023/11/25 01:20:55;;;;;;;4.43;1.80;;;1.50;99.90;;;;;;4843574;29;20420;-73
2023/11/25 01:23:27;;;;;;;4.13;1.47;;;1.50;99.90;;;;;;4846220;29;20467;-72
2023/11/25 01:25:53;;;;;;;6.37;1.77;;;1.50;99.90;;;;;;4854737;29;20449;-73
2023/11/25 01:28:19;;;;;;;3.70;1.60;;;1.60;99.90;;;;;;4841514;29;20446;-72
2023/11/25 01:30:45;;;;;;;4.17;1.77;;;1.70;99.90;;;;;;4848763;29;20543;-73
2023/11/25 01:33:10;;;;;;;4.83;2.07;;;1.80;99.90;;;;;;4860406;29;20439;-74
2023/11/25 01:35:41;;;;;;;2.30;1.53;;;1.80;99.90;;;;;;4852337;29;20269;-73
2023/11/25 01:38:07;;;;;;;4.80;1.70;;;1.90;99.90;;;;;;4837051;29;20666;-72
2023/11/25 01:40:36;;;;;;;3.67;1.30;;;2.00;99.90;;;;;;4857509;29;20438;-72
2023/11/25 01:43:07;;;;;;;3.70;2.13;;;2.00;99.90;;;;;;4836814;29;20445;-72
2023/11/25 01:45:33;;;;;;;5.40;1.80;;;2.10;99.90;;;;;;4866232;29;20770;-73
2023/11/25 01:48:02;;;;;;;6.17;2.20;;;2.10;99.90;;;;;;4842797;29;20418;-73
2023/11/25 01:50:33;;;;;;;3.80;1.83;;;2.10;99.90;;;;;;4851746;29;20197;-72
2023/11/25 01:52:59;;;;;;;5.87;2.57;;;2.10;99.90;;;;;;4860139;29;20435;-72
2023/11/25 01:55:27;;;;;;;9.50;2.90;;;2.10;99.90;;;;;;4861620;29;20937;-71
2023/11/25 01:57:55;;;;;;;6.20;2.83;;;2.10;99.90;;;;;;4845949;29;20542;-73
2023/11/25 02:00:23;;;;;;;7.80;3.30;;;2.00;99.90;;;;;;4857408;29;20435;-72
2023/11/25 02:02:49;;;;;;;10.10;3.27;;;2.00;99.90;;;;;;4832703;29;20424;-72
2023/11/25 02:05:15;;;;;;;8.40;2.80;;;1.90;99.90;;;;;;4837643;29;20466;-72
2023/11/25 02:07:41;;;;;;;7.50;2.90;;;1.80;99.90;;;;;;4843022;29;20426;-74
2023/11/25 02:10:10;;;;;;;10.93;2.73;;;1.80;99.90;;;;;;4840124;29;20446;-71
2023/11/25 02:12:38;;;;;;;8.70;3.60;;;1.80;99.90;;;;;;4840005;29;20517;-72
2023/11/25 02:15:10;;;;;;;9.03;2.80;;;1.70;99.90;;;;;;4851226;29;20454;-72
2023/11/25 02:17:38;;;;;;;7.43;3.07;;;1.70;99.90;;;;;;4849855;29;20740;-71
2023/11/25 02:20:06;;;;;;;9.23;3.07;;;1.70;99.90;;;;;;4862278;29;20433;-72
2023/11/25 02:22:31;;;;;;;8.77;2.53;;;1.60;99.90;;;;;;4842346;29;20443;-73
2023/11/25 02:24:57;;;;;;;3.43;1.93;;;1.70;99.90;;;;;;4852903;29;20442;-73
2023/11/25 02:27:23;;;;;;;7.10;2.73;;;1.60;99.90;;;;;;4850033;29;20658;-74
2023/11/25 02:29:49;;;;;;;4.73;2.60;;;1.50;99.90;;;;;;4837904;29;20246;-72
2023/11/25 02:32:15;;;;;;;3.83;2.30;;;1.60;99.90;;;;;;4839912;29;20442;-72
2023/11/25 02:34:41;;;;;;;7.20;2.60;;;1.50;99.90;;;;;;4841819;29;20890;-72
2023/11/25 02:37:07;;;;;;;8.30;3.20;;;1.50;99.90;;;;;;4858059;29;20798;-71
2023/11/25 02:39:34;;;;;;;12.10;3.53;;;1.40;99.90;;;;;;4844251;29;20188;-71
2023/11/25 02:42:00;;;;;;;4.37;2.23;;;1.50;99.90;;;;;;4835387;29;20253;-70
2023/11/25 02:44:27;;;;;;;8.60;2.37;;;1.50;99.90;;;;;;4845246;29;20772;-72
2023/11/25 02:46:53;;;;;;;8.40;2.43;;;1.40;99.90;;;;;;4859271;29;20646;-70
2023/11/25 02:49:21;;;;;;;4.57;2.33;;;1.40;99.90;;;;;;4844235;29;20411;-72
2023/11/25 02:51:48;;;;;;;7.17;2.83;;;1.40;99.90;;;;;;4854072;29;20447;-71
2023/11/25 02:54:14;;;;;;;6.67;2.77;;;1.40;99.90;;;;;;4854193;29;20419;-72
2023/11/25 02:56:40;;;;;;;9.67;2.63;;;1.40;99.90;;;;;;4852331;29;20532;-72
2023/11/25 02:59:07;;;;;;;8.87;3.73;;;1.50;99.90;;;;;;4840630;29;20431;-71
2023/11/25 03:01:36;;;;;;;10.40;2.70;;;1.50;99.90;;;;;;4842986;29;20225;-73
2023/11/25 03:04:05;;;;;;;10.27;3.30;;;1.50;99.90;;;;;;4843041;29;20515;-72
2023/11/25 03:06:31;;;;;;;9.30;3.80;;;1.50;99.90;;;;;;4865555;29;20921;-72
2023/11/25 03:08:57;;;;;;;8.30;3.23;;;1.40;99.90;;;;;;4865861;29;20429;-72
2023/11/25 03:11:23;;;;;;;9.60;2.83;;;1.40;99.90;;;;;;4843357;29;20499;-72
2023/11/25 03:13:49;;;;;;;11.03;3.17;;;1.40;99.90;;;;;;4833722;29;20435;-70
2023/11/25 03:16:15;;;;;;;6.40;2.50;;;1.50;99.90;;;;;;4841147;29;20458;-71
2023/11/25 03:18:41;;;;;;;7.87;2.23;;;1.40;99.90;;;;;;4842506;29;20245;-72
2023/11/25 03:21:09;;;;;;;7.60;2.43;;;1.40;99.90;;;;;;4857241;29;20492;-72
2023/11/25 03:23:36;;;;;;;5.07;2.40;;;1.40;99.90;;;;;;4858057;29;20693;-71
2023/11/25 03:26:05;;;;;;;9.43;2.40;;;1.40;99.90;;;;;;4839629;29;20545;-72
2023/11/25 03:28:34;;;;;;;5.93;2.17;;;1.40;99.90;;;;;;4840234;29;20419;-72
2023/11/25 03:31:04;;;;;;;11.23;3.80;;;1.40;99.90;;;;;;4849515;29;20439;-71
2023/11/25 03:33:34;;;;;;;7.97;2.40;;;1.40;99.90;;;;;;4844693;29;20442;-71
2023/11/25 03:36:00;;;;;;;6.00;2.63;;;1.40;99.90;;;;;;4848757;29;20465;-71
2023/11/25 03:38:26;;;;;;;11.73;2.70;;;1.40;99.90;;;;;;4842099;29;20458;-72
2023/11/25 03:40:52;;;;;;;10.10;2.60;;;1.40;99.90;;;;;;4845661;29;20431;-73
2023/11/25 03:43:21;;;;;;;7.80;2.80;;;1.40;99.90;;;;;;4838466;29;20426;-72
2023/11/25 03:45:50;;;;;;;8.40;2.87;;;1.40;99.90;;;;;;4838169;29;20486;-72
2023/11/25 03:48:16;;;;;;;7.50;2.77;;;1.40;99.90;;;;;;4832473;29;20423;-72
2023/11/25 03:50:45;;;;;;;6.97;2.27;;;1.40;99.90;;;;;;4842971;29;20939;-73
2023/11/25 03:53:10;;;;;;;8.60;2.50;;;1.40;99.90;;;;;;4854297;29;20446;-73
2023/11/25 03:55:36;;;;;;;10.30;3.13;;;1.40;99.90;;;;;;4852385;29;20509;-72
2023/11/25 03:58:03;;;;;;;5.00;1.90;;;1.50;99.90;;;;;;4840762;29;20231;-72
2023/11/25 04:00:29;;;;;;;5.40;1.73;;;1.50;99.90;;;;;;4850250;29;20197;-72
2023/11/25 04:02:55;;;;;;;8.30;2.80;;;1.50;99.90;;;;;;4860078;29;20521;-73
2023/11/25 04:05:22;;;;;;;5.83;2.10;;;1.50;99.90;;;;;;4840545;29;20205;-71
2023/11/25 04:07:48;;;;;;;4.70;1.83;;;1.50;99.90;;;;;;4847825;29;20194;-71
2023/11/25 04:10:15;;;;;;;5.73;2.00;;;1.50;99.90;;;;;;4841670;29;21408;-72
2023/11/25 04:12:41;;;;;;;6.10;2.33;;;1.60;99.90;;;;;;4836400;29;20254;-71
2023/11/25 04:15:10;;;;;;;6.30;1.93;;;1.60;99.90;;;;;;4835893;29;20469;-71
2023/11/25 04:17:41;;;;;;;5.63;2.87;;;1.70;99.90;;;;;;4849665;29;20477;-72
2023/11/25 04:20:13;;;;;;;10.33;2.20;;;1.80;99.90;;;;;;4839460;29;20444;-71
2023/11/25 04:22:47;;;;;;;16.13;2.90;;;1.90;99.90;;;;;;4842109;29;20498;-72
2023/11/25 04:25:18;;;;;;;22.70;2.57;;;2.00;99.90;;;;;;4842039;29;20456;-71
2023/11/25 04:27:49;;;;;;;12.87;2.80;;;2.00;99.90;;;;;;4840247;29;20422;-73
2023/11/25 04:30:16;;;;;;;6.60;2.50;;;2.00;99.90;;;;;;4837437;29;20447;-71
2023/11/25 04:32:44;;;;;;;9.13;2.40;;;2.00;99.90;;;;;;4849495;29;20459;-71
2023/11/25 04:35:10;;;;;;;14.10;2.70;;;1.90;99.90;;;;;;4846836;29;20462;-72
2023/11/25 04:37:39;;;;;;;10.97;2.43;;;1.90;99.90;;;;;;4833182;29;20914;-71
2023/11/25 04:40:06;;;;;;;7.13;1.90;;;1.80;99.90;;;;;;4836255;29;20198;-71
2023/11/25 04:42:32;;;;;;;9.83;1.90;;;1.80;99.90;;;;;;4846884;29;20610;-73
2023/11/25 04:44:58;;;;;;;4.47;1.93;;;1.80;99.90;;;;;;4853851;29;20910;-72
2023/11/25 04:47:24;;;;;;;6.10;2.20;;;1.80;99.90;;;;;;4863874;29;20526;-72
2023/11/25 04:49:50;;;;;;;7.93;2.17;;;1.80;99.90;;;;;;4846216;29;20435;-72
2023/11/25 04:52:16;;;;;;;8.93;2.10;;;1.80;99.90;;;;;;4832219;29;20186;-72
2023/11/25 04:54:41;;;;;;;9.10;2.77;;;1.80;99.90;;;;;;4841819;29;20444;-69
2023/11/25 04:57:07;;;;;;;11.90;3.00;;;1.70;99.90;;;;;;4847305;29;20495;-72
2023/11/25 04:59:35;;;;;;;8.20;2.50;;;1.80;99.90;;;;;;4831384;29;20223;-72
2023/11/25 05:02:01;;;;;;;7.83;2.40;;;1.80;99.90;;;;;;4837826;29;20459;-72
2023/11/25 05:04:27;;;;;;;15.70;2.73;;;1.80;99.90;;;;;;4836277;29;20422;-70
2023/11/25 05:06:52;;;;;;;6.20;2.17;;;1.80;99.90;;;;;;4844543;29;20923;-71
2023/11/25 05:09:18;;;;;;;5.00;1.63;;;1.80;99.90;;;;;;4827406;29;20246;-72
2023/11/25 05:11:46;;;;;;;5.77;1.60;;;1.80;99.90;;;;;;4835570;29;20182;-70
2023/11/25 05:14:12;;;;;;;10.70;2.20;;;1.90;99.90;;;;;;4850813;29;20193;-72
2023/11/25 05:16:38;;;;;;;6.77;2.57;;;1.90;99.90;;;;;;4834819;29;20492;-71
2023/11/25 05:19:04;;;;;;;10.73;2.17;;;1.90;99.90;;;;;;4833196;29;20281;-73
2023/11/25 05:21:30;;;;;;;8.00;1.87;;;1.90;99.90;;;;;;4839299;29;20423;-71
2023/11/25 05:23:56;;;;;;;7.90;2.23;;;1.90;99.90;;;;;;4834586;29;20200;-70
2023/11/25 05:26:24;;;;;;;6.30;1.70;;;1.90;99.90;;;;;;4829230;29;20439;-71
2023/11/25 05:28:50;;;;;;;7.63;2.23;;;2.00;99.90;;;;;;4833952;29;20876;-71
2023/11/25 05:31:16;;;;;;;5.97;2.60;;;2.00;99.90;;;;;;4827175;29;20454;-71
2023/11/25 05:33:42;;;;;;;9.20;1.83;;;2.10;99.90;;;;;;4827374;29;20197;-73
2023/11/25 05:36:08;;;;;;;11.07;2.23;;;2.20;99.90;;;;;;4827357;29;20213;-70
2023/11/25 05:38:34;;;;;;;10.60;2.67;;;2.20;99.90;;;;;;4832402;29;20442;-71
2023/11/25 05:41:02;;;;;;;11.63;3.40;;;2.20;99.90;;;;;;4839282;29;20536;-72
2023/11/25 05:43:28;;;;;;;9.13;2.50;;;2.30;99.90;;;;;;4830017;29;20197;-71
2023/11/25 05:45:54;;;;;;;10.63;2.70;;;2.30;99.90;;;;;;4826891;29;20612;-73
2023/11/25 05:48:22;;;;;;;13.27;2.57;;;2.30;99.90;;;;;;4827511;29;20262;-72
2023/11/25 05:50:48;;;;;;;13.93;2.40;;;2.30;99.90;;;;;;4831418;29;20538;-72
2023/11/25 05:53:14;;;;;;;17.27;3.23;;;2.40;99.90;;;;;;4839350;29;20423;-71
2023/11/25 05:55:41;;;;;;;17.90;3.53;;;2.40;99.90;;;;;;4830892;29;20797;-72
2023/11/25 05:58:07;;;;;;;12.30;2.83;;;2.40;99.90;;;;;;4836750;29;20515;-72
2023/11/25 06:00:33;;;;;;;12.17;2.83;;;2.40;99.90;;;;;;4847439;29;20483;-71
2023/11/25 06:02:58;;;;;;;5.93;2.23;;;2.40;99.90;;;;;;4840770;29;20879;-71
2023/11/25 06:05:24;;;;;;;15.70;2.63;;;2.50;99.90;;;;;;4845403;29;20442;-71
2023/11/25 06:07:50;;;;;;;18.13;2.20;;;2.50;99.90;;;;;;4834387;29;20629;-71
2023/11/25 06:10:15;;;;;;;7.83;2.80;;;2.50;99.90;;;;;;4843624;29;20185;-71
2023/11/25 06:12:44;;;;;;;14.67;3.10;;;2.50;99.90;;;;;;4838474;29;20206;-72
2023/11/25 06:15:11;;;;;;;14.60;3.30;;;2.50;99.90;;;;;;4842532;29;20213;-72
2023/11/25 06:17:37;;;;;;;13.80;3.20;;;2.40;99.90;;;;;;4833986;29;20475;-71
2023/11/25 06:20:04;;;;;;;15.17;2.80;;;2.50;99.90;;;;;;4858870;29;20444;-73
2023/11/25 06:22:31;;;;;;;16.83;3.20;;;2.50;99.90;;;;;;4848693;29;20506;-74
2023/11/25 06:24:58;;;;;;;18.40;3.50;;;2.50;99.90;;;;;;4854541;29;20470;-71
2023/11/25 06:27:24;;;;;;;19.30;3.97;;;2.50;99.90;;;;;;4841700;29;20503;-72
2023/11/25 06:29:50;;;;;;;18.80;3.50;;;2.50;99.90;;;;;;4850697;29;20446;-72
2023/11/25 06:32:16;;;;;;;17.03;3.83;;;2.50;99.90;;;;;;4853399;29;20430;-73
2023/11/25 06:34:42;;;;;;;16.43;3.13;;;2.60;99.90;;;;;;4835711;29;20222;-71
2023/11/25 06:37:07;;;;;;;22.60;4.20;;;2.60;99.90;;;;;;4834381;29;20218;-73
2023/11/25 06:39:33;;;;;;;13.00;2.90;;;2.60;99.90;;;;;;4843935;29;20190;-72
2023/11/25 06:42:00;;;;;;;19.17;3.40;;;2.60;99.90;;;;;;4840714;29;20272;-72
2023/11/25 06:44:27;;;;;;;11.57;3.50;;;2.70;99.90;;;;;;4837581;29;20757;-72
2023/11/25 06:46:52;;;;;;;14.70;3.97;;;2.70;99.90;;;;;;4864240;29;20742;-73
2023/11/25 06:49:18;;;;;;;28.20;3.60;;;2.70;99.90;;;;;;4852252;29;20423;-72
2023/11/25 06:51:44;;;;;;;12.47;2.67;;;2.80;99.90;;;;;;4843077;29;20614;-73
2023/11/25 06:54:11;;;;;;;33.03;4.10;;;2.80;99.90;;;;;;4837905;29;20513;-72
2023/11/25 06:56:38;;;;;;;14.57;2.83;;;2.80;99.90;;;;;;4834052;29;20559;-72
2023/11/25 06:59:05;;;;;;;24.13;4.27;;;2.80;99.90;;;;;;4847221;29;20558;-74
2023/11/25 07:01:34;;;;;;;18.73;3.73;;;2.80;99.90;;;;;;4842427;29;20463;-72
2023/11/25 07:04:03;;;;;;;16.17;4.27;;;2.90;99.90;;;;;;4833546;29;20424;-71
2023/11/25 07:06:30;;;;;;;31.03;4.40;;;2.90;99.90;;;;;;4837063;29;20479;-73
2023/11/25 07:09:00;;;;;;;27.17;4.73;;;2.90;99.90;;;;;;4848241;29;20423;-73
2023/11/25 07:11:27;;;;;;;20.10;4.23;;;2.90;99.90;;;;;;4861810;29;20238;-72
2023/11/25 07:13:54;;;;;;;22.30;4.83;;;2.90;99.90;;;;;;4845296;29;20439;-72
2023/11/25 07:16:21;;;;;;;25.33;4.93;;;2.90;99.90;;;;;;4832771;29;20515;-72
2023/11/25 07:18:49;;;;;;;21.53;4.20;;;2.90;99.90;;;;;;4832007;29;20467;-73
2023/11/25 07:21:15;;;;;;;16.90;3.50;;;2.90;99.90;;;;;;4836004;29;20477;-72
2023/11/25 07:23:42;;;;;;;16.53;3.60;;;2.90;99.90;;;;;;4852465;29;20442;-73
2023/11/25 07:26:11;;;;;;;18.87;4.40;;;2.90;99.90;;;;;;4843667;29;20446;-72
2023/11/25 07:28:38;;;;;;;31.83;5.30;;;2.90;99.90;;;;;;4863920;29;20438;-72
2023/11/25 07:31:04;;;;;;;19.40;4.07;;;3.00;99.90;;;;;;4852659;29;20472;-71
2023/11/25 07:33:31;;;;;;;31.93;5.30;;;2.90;99.90;;;;;;4852489;29;20431;-74
2023/11/25 07:35:57;;;;;;;13.77;5.00;;;3.00;99.90;;;;;;4864813;29;20910;-72
2023/11/25 07:38:23;;;;;;;8.93;3.90;;;3.00;99.90;;;;;;4859245;29;20466;-73
2023/11/25 07:40:49;;;;;;;10.50;3.63;;;2.90;99.90;;;;;;4852235;29;20479;-74
2023/11/25 07:43:15;;;;;;;10.97;3.70;;;3.00;99.90;;;;;;4834546;29;20442;-73
2023/11/25 07:45:41;;;;;;;14.00;3.80;;;2.80;99.90;;;;;;4842226;29;20455;-73
2023/11/25 07:48:08;;;;;;;14.77;3.77;;;2.80;99.90;;;;;;4842300;29;20442;-73
2023/11/25 07:50:35;;;;;;;8.70;3.07;;;2.90;99.90;;;;;;4851330;29;20410;-74
2023/11/25 07:53:01;;;;;;;18.77;3.87;;;3.00;99.90;;;;;;4825342;29;20491;-73
2023/11/25 07:55:26;;;;;;;18.10;3.50;;;3.00;99.90;;;;;;4842858;29;20442;-73
2023/11/25 07:57:52;;;;;;;20.73;4.80;;;2.80;99.90;;;;;;4826060;29;20503;-72
2023/11/25 08:00:19;;;;;;;26.37;4.67;;;2.80;99.90;;;;;;4841125;29;20343;-74
2023/11/25 08:02:49;;;;;;;20.47;4.80;;;2.90;99.90;;;;;;4847654;29;20200;-73
2023/11/25 08:05:21;;;;;;;14.83;3.77;;;3.00;99.90;;;;;;4841377;29;20477;-73
2023/11/25 08:07:51;;;;;;;13.73;3.07;;;2.90;99.90;;;;;;4850900;29;20430;-73
2023/11/25 08:10:18;;;;;;;30.27;3.90;;;3.00;99.90;;;;;;4852906;29;20421;-73
2023/11/25 08:12:45;;;;;;;16.57;3.60;;;3.10;99.90;;;;;;4842901;29;20431;-72
2023/11/25 08:15:14;;;;;;;19.13;3.90;;;3.50;99.90;;;;;;4836183;29;20446;-75
2023/11/25 08:17:42;;;;;;;12.03;3.27;;;3.50;99.90;;;;;;4864673;29;20486;-73
2023/11/25 08:20:11;;;;;;;31.17;5.40;;;3.60;99.90;;;;;;4846340;29;20430;-75
2023/11/25 08:22:38;;;;;;;20.10;4.80;;;3.60;99.90;;;;;;4854309;29;20402;-75
2023/11/25 08:25:07;;;;;;;16.50;3.77;;;3.30;99.90;;;;;;4820388;29;20769;-74
2023/11/25 08:27:34;;;;;;;15.33;2.90;;;3.40;99.90;;;;;;4834341;29;20899;-77
2023/11/25 08:30:00;;;;;;;16.07;4.10;;;3.50;99.90;;;;;;4857303;29;20450;-73
2023/11/25 08:32:26;;;;;;;20.53;4.03;;;3.50;99.90;;;;;;4833113;29;20463;-73
2023/11/25 08:34:51;;;;;;;20.17;3.57;;;3.50;99.90;;;;;;4833386;29;20490;-74
2023/11/25 08:37:17;;;;;;;35.40;4.17;;;3.50;99.90;;;;;;4843244;29;20214;-73
2023/11/25 08:39:43;;;;;;;17.60;4.07;;;3.40;99.90;;;;;;4831998;29;20259;-72
2023/11/25 08:42:09;;;;;;;17.57;3.43;;;3.40;99.90;;;;;;4836059;29;20184;-74
2023/11/25 08:44:38;;;;;;;15.10;3.90;;;3.60;99.90;;;;;;4842556;29;20280;-74
2023/11/25 08:47:03;;;;;;;19.17;3.93;;;3.70;99.90;;;;;;4846902;29;20440;-74
2023/11/25 08:49:29;;;;;;;20.17;4.10;;;3.50;99.90;;;;;;4853086;29;20784;-73
2023/11/25 08:51:55;;;;;;;21.03;4.50;;;3.40;99.90;;;;;;4836094;29;20205;-74
2023/11/25 08:54:21;;;;;;;7.43;2.67;;;3.50;99.90;;;;;;4849818;29;20455;-76
2023/11/25 08:56:48;;;;;;;31.50;6.00;;;3.40;99.90;;;;;;4840451;29;20188;-73
2023/11/25 08:59:18;;;;;;;13.50;5.10;;;3.50;99.90;;;;;;4847381;29;20212;-74
2023/11/25 09:01:46;;;;;;;26.13;4.03;;;3.50;99.90;;;;;;4851626;29;20486;-73
2023/11/25 09:04:16;;;;;;;20.47;4.23;;;3.60;99.90;;;;;;4831547;29;20435;-75
2023/11/25 09:06:42;;;;;;;31.23;5.47;;;3.60;99.90;;;;;;4841926;29;20426;-73
2023/11/25 09:09:07;;;;;;;29.20;4.33;;;3.60;99.90;;;;;;4849632;29;20877;-73
2023/11/25 09:11:36;;;;;;;26.93;4.93;;;3.60;99.90;;;;;;4864641;29;20201;-73
2023/11/25 09:14:04;;;;;;;22.60;5.67;;;3.60;99.90;;;;;;4837752;29;20204;-74
2023/11/25 09:16:29;;;;;;;25.50;5.87;;;3.70;99.90;;;;;;4835382;29;20463;-74
2023/11/25 09:18:55;;;;;;;29.57;7.67;;;3.70;99.90;;;;;;4834697;29;20500;-73
2023/11/25 09:21:22;;;;;;;18.77;5.83;;;3.90;99.90;;;;;;4838734;29;20205;-74
2023/11/25 09:23:48;;;;;;;22.97;7.27;;;3.90;99.90;;;;;;4865181;29;20185;-72
2023/11/25 09:26:13;;;;;;;20.50;5.83;;;4.00;99.90;;;;;;4850840;29;20872;-75
2023/11/25 09:28:40;;;;;;;25.20;4.87;;;3.90;99.90;;;;;;4839827;29;20209;-73
2023/11/25 09:31:06;;;;;;;26.63;3.90;;;4.10;99.90;;;;;;4842647;29;20197;-74
2023/11/25 09:33:32;;;;;;;12.90;4.57;;;4.00;99.90;;;;;;4835466;29;20473;-74
2023/11/25 09:35:59;;;;;;;25.57;4.03;;;4.10;99.90;;;;;;4834359;29;20442;-76
2023/11/25 09:38:24;;;;;;;21.27;4.13;;;4.10;99.90;;;;;;4856671;29;20465;-76
2023/11/25 09:40:50;;;;;;;22.73;4.53;;;3.90;99.90;;;;;;4836288;29;20427;-77
2023/11/25 09:43:18;;;;;;;24.40;3.73;;;4.10;99.90;;;;;;4856417;29;20212;-74
2023/11/25 09:45:45;;;;;;;21.07;3.43;;;4.00;99.90;;;;;;4832077;29;20443;-76
2023/11/25 09:48:11;;;;;;;19.83;4.97;;;4.00;99.90;;;;;;4833220;29;20466;-75
2023/11/25 09:50:37;;;;;;;29.73;4.37;;;4.10;99.90;;;;;;4843040;29;20470;-74
2023/11/25 09:53:17;;;;;;;25.50;4.43;;;4.10;99.90;;;;;;4843210;29;20692;-74
2023/11/25 09:55:55;;;;;;;25.37;6.90;;;3.90;99.90;;;;;;4852267;29;20544;-74
2023/11/25 09:58:21;;;;;;;23.73;5.47;;;4.10;99.90;;;;;;4828900;29;20537;-73
2023/11/25 10:00:48;;;;;;;22.00;6.60;;;4.20;99.90;;;;;;4867479;29;20815;-72
2023/11/25 10:03:15;;;;;;;17.40;5.43;;;4.20;99.90;;;;;;4852896;29;20406;-76
2023/11/25 10:05:41;;;;;;;38.23;8.40;;;4.40;99.90;;;;;;4870639;29;20446;-74
2023/11/25 10:08:07;;;;;;;27.73;8.80;;;4.30;99.90;;;;;;4849527;29;20894;-78
2023/11/25 10:10:32;;;;;;;29.13;8.27;;;4.30;99.90;;;;;;4854395;29;20212;-74
2023/11/25 10:13:00;;;;;;;28.63;8.37;;;4.20;99.90;;;;;;4831313;29;20229;-73
2023/11/25 10:15:25;;;;;;;25.73;7.47;;;4.20;99.90;;;;;;4842142;29;20244;-74
2023/11/25 10:17:54;;;;;;;35.77;9.97;;;4.30;99.90;;;;;;4857445;29;20522;-72
2023/11/25 10:20:22;;;;;;;22.37;6.73;;;4.40;99.90;;;;;;4857096;29;20496;-78
2023/11/25 10:22:57;;;;;;;30.40;8.23;;;4.30;99.90;;;;;;4841885;29;20438;-74
2023/11/25 10:25:25;;;;;;;30.20;9.10;;;4.60;99.90;;;;;;4861713;29;20463;-74
2023/11/25 10:27:52;;;;;;;39.73;8.27;;;4.70;99.90;;;;;;4835488;29;20443;-76
2023/11/25 10:30:17;;;;;;;31.50;8.47;;;4.70;99.90;;;;;;4840759;29;20525;-75
2023/11/25 10:32:43;;;;;;;21.93;6.77;;;4.50;99.90;;;;;;4867517;29;20856;-74
2023/11/25 10:35:09;;;;;;;20.50;7.50;;;4.70;99.90;;;;;;4819976;29;20224;-76
2023/11/25 10:37:39;;;;;;;19.77;6.43;;;4.60;99.90;;;;;;4859324;29;20204;-76
2023/11/25 10:40:10;;;;;;;21.63;6.20;;;4.70;99.90;;;;;;4830851;29;20430;-74
2023/11/25 10:42:43;;;;;;;20.57;6.20;;;4.70;99.90;;;;;;4843148;29;20453;-75
2023/11/25 10:45:21;;;;;;;22.50;5.37;;;4.70;99.90;;;;;;4851899;29;20560;-77
2023/11/25 10:47:47;;;;;;;17.57;5.93;;;4.90;99.90;;;;;;4822976;29;20457;-75
2023/11/25 10:50:13;;;;;;;20.83;4.30;;;5.10;99.90;;;;;;4847621;29;20427;-76
2023/11/25 10:52:41;;;;;;;30.70;4.53;;;5.20;99.90;;;;;;4862359;29;20434;-74
2023/11/25 10:55:09;;;;;;;17.20;4.60;;;5.40;99.90;;;;;;4846912;29;20221;-74
2023/11/25 10:57:36;;;;;;;12.33;4.10;;;5.30;99.90;;;;;;4866270;29;20470;-75
2023/11/25 11:00:10;;;;;;;18.13;3.97;;;5.50;99.90;;;;;;4845423;29;20537;-75
2023/11/25 11:02:56;;;;;;;15.67;4.00;;;5.60;99.90;;;;;;4856025;29;20509;-75
2023/11/25 11:05:39;;;;;;;15.63;4.27;;;5.70;99.90;;;;;;4840194;29;20446;-76
2023/11/25 11:08:17;;;;;;;18.03;4.40;;;5.70;99.90;;;;;;4852037;29;20419;-77
2023/11/25 11:10:59;;;;;;;13.77;4.73;;;5.70;99.90;;;;;;4862238;29;20800;-76
2023/11/25 11:13:40;;;;;;;8.90;4.00;;;5.70;99.90;;;;;;4865580;29;20463;-76
2023/11/25 11:16:17;;;;;;;13.67;3.93;;;5.90;99.90;;;;;;4851029;29;20466;-75
2023/11/25 11:18:44;;;;;;;6.20;2.90;;;5.90;99.90;;;;;;4845517;29;20482;-76
2023/11/25 11:21:14;;;;;;;10.90;3.50;;;6.00;99.90;;;;;;4851217;29;20423;-77
2023/11/25 11:23:41;;;;;;;7.70;2.67;;;6.00;99.90;;;;;;4871440;29;20423;-75
2023/11/25 11:26:45;;;;;;;15.10;7.80;;;6.10;99.90;;;;;;4846929;29;20462;-74
2023/11/25 11:29:20;;;;;;;5.97;2.40;;;6.20;99.90;;;;;;4811641;29;20446;-75
2023/11/25 11:32:07;;;;;;;34.03;12.33;;;6.40;99.90;;;;;;4837730;29;20446;-77
2023/11/25 11:34:37;;;;;;;13.17;4.17;;;6.40;99.90;;;;;;4829287;29;20426;-73
2023/11/25 11:37:06;;;;;;;4.40;2.90;;;6.40;99.90;;;;;;4850325;29;20706;-77
2023/11/25 11:39:50;;;;;;;10.03;2.40;;;6.50;99.90;;;;;;4848913;29;20424;-75
2023/11/25 11:42:22;;;;;;;10.73;2.83;;;6.40;99.90;;;;;;4849385;29;20446;-75
2023/11/25 11:47:45;;;;;;;6.33;2.07;;;6.60;99.90;;;;;;4846562;29;20438;-74
2023/11/25 11:50:18;;;;;;;6.37;2.70;;;6.60;99.90;;;;;;4862053;29;20411;-75
2023/11/25 11:53:00;;;;;;;7.43;3.83;;;6.60;99.90;;;;;;4846859;29;20436;-76
2023/11/25 11:55:40;;;;;;;9.03;2.70;;;6.70;99.90;;;;;;4872933;29;20477;-76
2023/11/25 11:58:11;;;;;;;7.77;2.30;;;6.70;99.90;;;;;;4830130;29;20467;-75
2023/11/25 12:00:47;;;;;;;8.60;2.57;;;6.90;99.90;;;;;;4859252;29;20752;-76
2023/11/25 12:03:16;;;;;;;8.00;3.80;;;6.90;99.90;;;;;;4848194;29;20430;-78
2023/11/25 12:05:42;;;;;;;10.10;2.37;;;7.00;99.90;;;;;;4832422;29;20453;-75
2023/11/25 12:08:08;;;;;;;7.67;3.20;;;6.80;99.90;;;;;;4850913;29;20416;-76
2023/11/25 12:10:38;;;;;;;13.97;3.33;;;6.80;99.90;;;;;;4846711;29;20445;-76
2023/11/25 12:13:04;;;;;;;8.63;3.10;;;6.80;99.90;;;;;;4848416;29;20441;-75
2023/11/25 12:15:31;;;;;;;9.10;2.83;;;6.60;99.90;;;;;;4847776;29;20482;-77
2023/11/25 12:17:58;;;;;;;7.40;3.50;;;6.40;99.90;;;;;;4857726;29;20544;-74
2023/11/25 12:20:27;;;;;;;3.30;2.53;;;6.20;99.90;;;;;;4864027;29;20431;-73
2023/11/25 12:22:54;;;;;;;10.13;2.60;;;6.20;99.90;;;;;;4860790;29;20422;-77
2023/11/25 12:25:19;;;;;;;7.83;3.67;;;6.00;99.90;;;;;;4856549;29;20439;-75
2023/11/25 12:28:09;;;;;;;7.30;2.57;;;5.90;99.90;;;;;;4833240;29;20422;-76
2023/11/25 12:30:39;;;;;;;7.20;2.40;;;5.90;99.90;;;;;;4830295;29;20185;-76
2023/11/25 12:33:06;;;;;;;5.70;2.20;;;5.90;99.90;;;;;;4868376;29;20450;-77
2023/11/25 12:35:36;;;;;;;6.37;2.77;;;5.70;99.90;;;;;;4868654;29;20461;-76
2023/11/25 12:38:05;;;;;;;7.33;2.57;;;5.70;99.90;;;;;;4846265;29;20545;-76
2023/11/25 12:40:30;;;;;;;8.13;2.80;;;5.60;99.90;;;;;;4858284;29;20764;-78
2023/11/25 12:42:56;;;;;;;6.30;2.40;;;5.60;99.90;;;;;;4864348;29;20443;-75
2023/11/25 12:45:40;;;;;;;7.80;2.53;;;5.60;99.90;;;;;;4849195;29;20225;-75
2023/11/25 12:48:08;;;;;;;11.57;2.60;;;5.60;99.90;;;;;;4847024;29;20201;-76
2023/11/25 12:50:55;;;;;;;9.03;3.10;;;5.70;99.90;;;;;;4855199;29;20430;-74
2023/11/25 12:53:21;;;;;;;6.60;2.30;;;5.60;99.90;;;;;;4843092;29;20483;-77
2023/11/25 12:55:50;;;;;;;7.03;3.43;;;5.70;99.90;;;;;;4840915;29;21281;-76
2023/11/25 12:58:18;;;;;;;10.20;3.10;;;5.70;99.90;;;;;;4854994;29;20482;-75